sensor_id;sensor_type;location;lat;lon;timestamp;P1;durP1;ratioP1;P2;durP2;ratioP2
25091;SDS011;13082;52.374;4.946;2024-02-28T00:02:13;4.77;;;3.83;;
25091;SDS011;13082;52.374;4.946;2024-02-28T00:04:39;4.20;;;3.80;;
25091;SDS011;13082;52.374;4.946;2024-02-28T00:07:06;5.60;;;4.03;;
25091;SDS011;13082;52.374;4.946;2024-02-28T00:09:31;4.40;;;3.60;;
25091;SDS011;13082;52.374;4.946;2024-02-28T00:11:57;8.17;;;4.03;;
25091;SDS011;13082;52.374;4.946;2024-02-28T00:14:23;6.03;;;3.93;;
25091;SDS011;13082;52.374;4.946;2024-02-28T00:16:49;5.63;;;4.40;;
25091;SDS011;13082;52.374;4.946;2024-02-28T00:19:15;5.80;;;4.60;;
25091;SDS011;13082;52.374;4.946;2024-02-28T00:21:43;5.47;;;4.70;;
25091;SDS011;13082;52.374;4.946;2024-02-28T00:24:09;6.13;;;4.63;;
25091;SDS011;13082;52.374;4.946;2024-02-28T00:26:35;6.97;;;5.07;;
25091;SDS011;13082;52.374;4.946;2024-02-28T00:29:01;5.87;;;5.20;;
25091;SDS011;13082;52.374;4.946;2024-02-28T00:31:27;5.53;;;5.03;;
25091;SDS011;13082;52.374;4.946;2024-02-28T00:33:52;5.83;;;5.20;;
25091;SDS011;13082;52.374;4.946;2024-02-28T00:36:18;5.40;;;4.90;;
25091;SDS011;13082;52.374;4.946;2024-02-28T00:38:44;6.53;;;4.67;;
25091;SDS011;13082;52.374;4.946;2024-02-28T00:41:09;9.33;;;6.03;;
25091;SDS011;13082;52.374;4.946;2024-02-28T00:43:35;6.83;;;5.07;;
25091;SDS011;13082;52.374;4.946;2024-02-28T00:46:01;10.70;;;5.23;;
25091;SDS011;13082;52.374;4.946;2024-02-28T00:48:26;7.77;;;4.97;;
25091;SDS011;13082;52.374;4.946;2024-02-28T00:50:52;6.50;;;5.23;;
25091;SDS011;13082;52.374;4.946;2024-02-28T00:53:18;7.30;;;5.03;;
25091;SDS011;13082;52.374;4.946;2024-02-28T00:55:45;12.37;;;5.83;;
25091;SDS011;13082;52.374;4.946;2024-02-28T00:58:10;5.80;;;5.27;;
25091;SDS011;13082;52.374;4.946;2024-02-28T01:00:36;7.03;;;5.43;;
25091;SDS011;13082;52.374;4.946;2024-02-28T01:03:01;8.10;;;5.40;;
25091;SDS011;13082;52.374;4.946;2024-02-28T01:05:29;6.67;;;5.67;;
25091;SDS011;13082;52.374;4.946;2024-02-28T01:07:55;5.87;;;5.00;;
25091;SDS011;13082;52.374;4.946;2024-02-28T01:10:21;8.50;;;5.27;;
25091;SDS011;13082;52.374;4.946;2024-02-28T01:12:47;7.50;;;5.47;;
25091;SDS011;13082;52.374;4.946;2024-02-28T01:15:12;8.10;;;5.70;;
25091;SDS011;13082;52.374;4.946;2024-02-28T01:17:38;7.90;;;6.30;;
25091;SDS011;13082;52.374;4.946;2024-02-28T01:20:04;6.87;;;4.80;;
25091;SDS011;13082;52.374;4.946;2024-02-28T01:22:32;7.27;;;5.47;;
25091;SDS011;13082;52.374;4.946;2024-02-28T01:24:57;6.17;;;5.57;;
25091;SDS011;13082;52.374;4.946;2024-02-28T01:27:23;9.60;;;5.70;;
25091;SDS011;13082;52.374;4.946;2024-02-28T01:29:48;8.77;;;6.17;;
25091;SDS011;13082;52.374;4.946;2024-02-28T01:32:14;7.43;;;5.77;;
25091;SDS011;13082;52.374;4.946;2024-02-28T01:34:40;7.87;;;5.83;;
25091;SDS011;13082;52.374;4.946;2024-02-28T01:37:05;8.40;;;5.97;;
25091;SDS011;13082;52.374;4.946;2024-02-28T01:39:31;6.30;;;5.70;;
25091;SDS011;13082;52.374;4.946;2024-02-28T01:41:56;8.33;;;6.03;;
25091;SDS011;13082;52.374;4.946;2024-02-28T01:44:22;7.03;;;6.10;;
25091;SDS011;13082;52.374;4.946;2024-02-28T01:46:48;6.83;;;5.77;;
25091;SDS011;13082;52.374;4.946;2024-02-28T01:49:13;8.03;;;5.93;;
25091;SDS011;13082;52.374;4.946;2024-02-28T01:51:41;11.03;;;6.07;;
25091;SDS011;13082;52.374;4.946;2024-02-28T01:54:07;7.13;;;5.90;;
25091;SDS011;13082;52.374;4.946;2024-02-28T01:56:33;11.70;;;6.13;;
25091;SDS011;13082;52.374;4.946;2024-02-28T01:58:59;6.67;;;5.97;;
25091;SDS011;13082;52.374;4.946;2024-02-28T02:01:26;8.67;;;5.73;;
25091;SDS011;13082;52.374;4.946;2024-02-28T02:03:53;8.00;;;5.40;;
25091;SDS011;13082;52.374;4.946;2024-02-28T02:06:19;7.93;;;5.37;;
25091;SDS011;13082;52.374;4.946;2024-02-28T02:08:46;9.53;;;5.70;;
25091;SDS011;13082;52.374;4.946;2024-02-28T02:11:13;10.47;;;5.70;;
25091;SDS011;13082;52.374;4.946;2024-02-28T02:13:50;6.03;;;5.03;;
25091;SDS011;13082;52.374;4.946;2024-02-28T02:16:16;7.93;;;5.13;;
25091;SDS011;13082;52.374;4.946;2024-02-28T02:18:42;6.60;;;5.40;;
25091;SDS011;13082;52.374;4.946;2024-02-28T02:21:08;8.43;;;6.10;;
25091;SDS011;13082;52.374;4.946;2024-02-28T02:23:36;6.53;;;5.70;;
25091;SDS011;13082;52.374;4.946;2024-02-28T02:26:06;6.27;;;5.67;;
25091;SDS011;13082;52.374;4.946;2024-02-28T02:28:32;8.10;;;5.37;;
25091;SDS011;13082;52.374;4.946;2024-02-28T02:30:57;9.13;;;6.03;;
25091;SDS011;13082;52.374;4.946;2024-02-28T02:33:23;7.83;;;5.73;;
25091;SDS011;13082;52.374;4.946;2024-02-28T02:35:49;5.93;;;4.93;;
25091;SDS011;13082;52.374;4.946;2024-02-28T02:38:14;7.97;;;5.50;;
25091;SDS011;13082;52.374;4.946;2024-02-28T02:40:40;6.70;;;5.47;;
25091;SDS011;13082;52.374;4.946;2024-02-28T02:43:06;8.27;;;5.33;;
25091;SDS011;13082;52.374;4.946;2024-02-28T02:45:31;7.83;;;5.60;;
25091;SDS011;13082;52.374;4.946;2024-02-28T02:47:57;6.40;;;5.77;;
25091;SDS011;13082;52.374;4.946;2024-02-28T02:50:22;10.30;;;5.20;;
25091;SDS011;13082;52.374;4.946;2024-02-28T02:52:48;7.97;;;5.60;;
25091;SDS011;13082;52.374;4.946;2024-02-28T02:55:14;8.23;;;5.60;;
25091;SDS011;13082;52.374;4.946;2024-02-28T02:57:40;7.77;;;5.37;;
25091;SDS011;13082;52.374;4.946;2024-02-28T03:00:10;8.03;;;5.33;;
25091;SDS011;13082;52.374;4.946;2024-02-28T03:02:36;9.50;;;5.30;;
25091;SDS011;13082;52.374;4.946;2024-02-28T03:05:05;6.60;;;5.37;;
25091;SDS011;13082;52.374;4.946;2024-02-28T03:07:31;6.03;;;5.30;;
25091;SDS011;13082;52.374;4.946;2024-02-28T03:09:57;6.37;;;5.70;;
25091;SDS011;13082;52.374;4.946;2024-02-28T03:12:23;7.77;;;5.23;;
25091;SDS011;13082;52.374;4.946;2024-02-28T03:14:48;5.80;;;5.13;;
25091;SDS011;13082;52.374;4.946;2024-02-28T03:17:14;6.23;;;5.37;;
25091;SDS011;13082;52.374;4.946;2024-02-28T03:19:40;7.57;;;5.70;;
25091;SDS011;13082;52.374;4.946;2024-02-28T03:22:06;6.83;;;5.43;;
25091;SDS011;13082;52.374;4.946;2024-02-28T03:24:32;9.77;;;5.33;;
25091;SDS011;13082;52.374;4.946;2024-02-28T03:27:00;11.73;;;5.27;;
25091;SDS011;13082;52.374;4.946;2024-02-28T03:29:27;7.00;;;5.73;;
25091;SDS011;13082;52.374;4.946;2024-02-28T03:31:52;7.67;;;5.43;;
25091;SDS011;13082;52.374;4.946;2024-02-28T03:34:18;9.87;;;6.37;;
25091;SDS011;13082;52.374;4.946;2024-02-28T03:36:44;6.60;;;4.90;;
25091;SDS011;13082;52.374;4.946;2024-02-28T03:39:10;8.43;;;6.73;;
25091;SDS011;13082;52.374;4.946;2024-02-28T03:41:35;9.93;;;5.50;;
25091;SDS011;13082;52.374;4.946;2024-02-28T03:44:01;9.97;;;5.57;;
25091;SDS011;13082;52.374;4.946;2024-02-28T03:46:26;6.63;;;5.43;;
25091;SDS011;13082;52.374;4.946;2024-02-28T03:48:52;8.43;;;5.70;;
25091;SDS011;13082;52.374;4.946;2024-02-28T03:51:17;10.77;;;6.23;;
25091;SDS011;13082;52.374;4.946;2024-02-28T03:53:43;10.57;;;6.33;;
25091;SDS011;13082;52.374;4.946;2024-02-28T03:56:09;12.00;;;7.23;;
25091;SDS011;13082;52.374;4.946;2024-02-28T03:58:35;12.47;;;5.80;;
25091;SDS011;13082;52.374;4.946;2024-02-28T04:01:00;9.37;;;6.63;;
25091;SDS011;13082;52.374;4.946;2024-02-28T04:03:26;9.10;;;6.27;;
25091;SDS011;13082;52.374;4.946;2024-02-28T04:05:51;11.87;;;7.10;;
25091;SDS011;13082;52.374;4.946;2024-02-28T04:08:17;10.07;;;6.47;;
25091;SDS011;13082;52.374;4.946;2024-02-28T04:10:43;9.73;;;6.53;;
25091;SDS011;13082;52.374;4.946;2024-02-28T04:13:08;9.07;;;7.13;;
25091;SDS011;13082;52.374;4.946;2024-02-28T04:15:34;10.67;;;6.27;;
25091;SDS011;13082;52.374;4.946;2024-02-28T04:18:00;13.10;;;6.53;;
25091;SDS011;13082;52.374;4.946;2024-02-28T04:20:26;10.93;;;7.37;;
25091;SDS011;13082;52.374;4.946;2024-02-28T04:22:51;11.67;;;7.13;;
25091;SDS011;13082;52.374;4.946;2024-02-28T04:25:17;11.93;;;7.43;;
25091;SDS011;13082;52.374;4.946;2024-02-28T04:27:43;12.67;;;7.37;;
25091;SDS011;13082;52.374;4.946;2024-02-28T04:30:09;8.53;;;6.87;;
25091;SDS011;13082;52.374;4.946;2024-02-28T04:32:35;11.30;;;6.87;;
25091;SDS011;13082;52.374;4.946;2024-02-28T04:35:01;9.20;;;7.03;;
25091;SDS011;13082;52.374;4.946;2024-02-28T04:37:28;12.63;;;8.10;;
25091;SDS011;13082;52.374;4.946;2024-02-28T04:39:53;11.43;;;7.37;;
25091;SDS011;13082;52.374;4.946;2024-02-28T04:42:19;10.77;;;7.53;;
25091;SDS011;13082;52.374;4.946;2024-02-28T04:44:45;16.17;;;7.60;;
25091;SDS011;13082;52.374;4.946;2024-02-28T04:47:10;10.10;;;7.67;;
25091;SDS011;13082;52.374;4.946;2024-02-28T04:49:37;11.90;;;7.30;;
25091;SDS011;13082;52.374;4.946;2024-02-28T04:52:03;13.23;;;8.33;;
25091;SDS011;13082;52.374;4.946;2024-02-28T04:54:30;13.83;;;8.07;;
25091;SDS011;13082;52.374;4.946;2024-02-28T04:56:55;20.90;;;8.07;;
25091;SDS011;13082;52.374;4.946;2024-02-28T04:59:21;14.07;;;7.63;;
25091;SDS011;13082;52.374;4.946;2024-02-28T05:01:47;13.40;;;7.20;;
25091;SDS011;13082;52.374;4.946;2024-02-28T05:04:13;12.87;;;7.97;;
25091;SDS011;13082;52.374;4.946;2024-02-28T05:06:39;13.30;;;8.70;;
25091;SDS011;13082;52.374;4.946;2024-02-28T05:09:05;12.37;;;8.00;;
25091;SDS011;13082;52.374;4.946;2024-02-28T05:11:30;11.63;;;8.57;;
25091;SDS011;13082;52.374;4.946;2024-02-28T05:13:57;14.83;;;9.07;;
25091;SDS011;13082;52.374;4.946;2024-02-28T05:16:22;13.23;;;8.27;;
25091;SDS011;13082;52.374;4.946;2024-02-28T05:18:48;11.10;;;8.40;;
25091;SDS011;13082;52.374;4.946;2024-02-28T05:21:14;15.30;;;8.40;;
25091;SDS011;13082;52.374;4.946;2024-02-28T05:23:40;12.30;;;8.63;;
25091;SDS011;13082;52.374;4.946;2024-02-28T05:26:05;9.77;;;7.67;;
25091;SDS011;13082;52.374;4.946;2024-02-28T05:28:32;17.87;;;8.73;;
25091;SDS011;13082;52.374;4.946;2024-02-28T05:30:59;12.70;;;9.07;;
25091;SDS011;13082;52.374;4.946;2024-02-28T05:33:44;13.67;;;10.43;;
25091;SDS011;13082;52.374;4.946;2024-02-28T05:36:10;13.37;;;10.47;;
25091;SDS011;13082;52.374;4.946;2024-02-28T05:38:35;13.80;;;10.10;;
25091;SDS011;13082;52.374;4.946;2024-02-28T05:41:01;20.33;;;13.50;;
25091;SDS011;13082;52.374;4.946;2024-02-28T05:43:26;14.80;;;9.77;;
25091;SDS011;13082;52.374;4.946;2024-02-28T05:45:52;15.90;;;11.50;;
25091;SDS011;13082;52.374;4.946;2024-02-28T05:48:18;14.90;;;11.10;;
25091;SDS011;13082;52.374;4.946;2024-02-28T05:50:43;14.10;;;10.53;;
25091;SDS011;13082;52.374;4.946;2024-02-28T05:53:09;12.70;;;10.00;;
25091;SDS011;13082;52.374;4.946;2024-02-28T05:55:35;16.40;;;12.07;;
25091;SDS011;13082;52.374;4.946;2024-02-28T05:58:00;15.60;;;11.27;;
25091;SDS011;13082;52.374;4.946;2024-02-28T06:00:26;14.53;;;10.70;;
25091;SDS011;13082;52.374;4.946;2024-02-28T06:02:53;17.53;;;12.17;;
25091;SDS011;13082;52.374;4.946;2024-02-28T06:05:18;14.57;;;11.10;;
25091;SDS011;13082;52.374;4.946;2024-02-28T06:07:44;14.50;;;10.80;;
25091;SDS011;13082;52.374;4.946;2024-02-28T06:10:10;15.67;;;11.43;;
25091;SDS011;13082;52.374;4.946;2024-02-28T06:12:35;17.33;;;11.37;;
25091;SDS011;13082;52.374;4.946;2024-02-28T06:15:01;19.00;;;11.47;;
25091;SDS011;13082;52.374;4.946;2024-02-28T06:17:27;14.10;;;11.80;;
25091;SDS011;13082;52.374;4.946;2024-02-28T06:19:52;15.07;;;11.27;;
25091;SDS011;13082;52.374;4.946;2024-02-28T06:22:18;16.87;;;12.57;;
25091;SDS011;13082;52.374;4.946;2024-02-28T06:24:44;14.13;;;10.93;;
25091;SDS011;13082;52.374;4.946;2024-02-28T06:27:10;15.70;;;11.17;;
25091;SDS011;13082;52.374;4.946;2024-02-28T06:29:38;15.27;;;11.83;;
25091;SDS011;13082;52.374;4.946;2024-02-28T06:32:07;18.87;;;12.93;;
25091;SDS011;13082;52.374;4.946;2024-02-28T06:34:33;17.93;;;12.10;;
25091;SDS011;13082;52.374;4.946;2024-02-28T06:36:59;18.20;;;11.93;;
25091;SDS011;13082;52.374;4.946;2024-02-28T06:39:24;16.90;;;12.33;;
25091;SDS011;13082;52.374;4.946;2024-02-28T06:41:50;18.00;;;12.60;;
25091;SDS011;13082;52.374;4.946;2024-02-28T06:44:17;25.10;;;12.87;;
25091;SDS011;13082;52.374;4.946;2024-02-28T06:46:44;18.90;;;12.37;;
25091;SDS011;13082;52.374;4.946;2024-02-28T06:49:09;21.20;;;12.10;;
25091;SDS011;13082;52.374;4.946;2024-02-28T06:51:35;19.90;;;12.57;;
25091;SDS011;13082;52.374;4.946;2024-02-28T06:54:00;20.17;;;12.53;;
25091;SDS011;13082;52.374;4.946;2024-02-28T06:56:26;21.50;;;12.63;;
25091;SDS011;13082;52.374;4.946;2024-02-28T06:58:51;21.10;;;13.03;;
25091;SDS011;13082;52.374;4.946;2024-02-28T07:01:17;20.87;;;13.37;;
25091;SDS011;13082;52.374;4.946;2024-02-28T07:03:43;22.90;;;14.37;;
25091;SDS011;13082;52.374;4.946;2024-02-28T07:06:09;23.43;;;14.53;;
25091;SDS011;13082;52.374;4.946;2024-02-28T07:08:36;20.60;;;14.50;;
25091;SDS011;13082;52.374;4.946;2024-02-28T07:11:02;20.40;;;13.03;;
25091;SDS011;13082;52.374;4.946;2024-02-28T07:13:28;25.83;;;14.83;;
25091;SDS011;13082;52.374;4.946;2024-02-28T07:15:53;25.03;;;14.80;;
25091;SDS011;13082;52.374;4.946;2024-02-28T07:18:19;19.73;;;14.37;;
25091;SDS011;13082;52.374;4.946;2024-02-28T07:20:45;27.27;;;15.03;;
25091;SDS011;13082;52.374;4.946;2024-02-28T07:23:11;24.47;;;14.07;;
25091;SDS011;13082;52.374;4.946;2024-02-28T07:25:37;22.67;;;15.13;;
25091;SDS011;13082;52.374;4.946;2024-02-28T07:28:03;27.03;;;15.57;;
25091;SDS011;13082;52.374;4.946;2024-02-28T07:30:29;23.27;;;14.30;;
25091;SDS011;13082;52.374;4.946;2024-02-28T07:32:55;26.20;;;16.30;;
25091;SDS011;13082;52.374;4.946;2024-02-28T07:35:21;26.17;;;16.63;;
25091;SDS011;13082;52.374;4.946;2024-02-28T07:37:48;26.37;;;16.00;;
25091;SDS011;13082;52.374;4.946;2024-02-28T07:40:14;24.63;;;15.70;;
25091;SDS011;13082;52.374;4.946;2024-02-28T07:42:40;27.73;;;17.67;;
25091;SDS011;13082;52.374;4.946;2024-02-28T07:45:06;28.37;;;15.97;;
25091;SDS011;13082;52.374;4.946;2024-02-28T07:47:33;30.60;;;18.80;;
25091;SDS011;13082;52.374;4.946;2024-02-28T07:49:59;23.43;;;16.90;;
25091;SDS011;13082;52.374;4.946;2024-02-28T07:52:24;26.40;;;17.77;;
25091;SDS011;13082;52.374;4.946;2024-02-28T07:54:50;25.27;;;17.33;;
25091;SDS011;13082;52.374;4.946;2024-02-28T07:57:16;26.97;;;17.20;;
25091;SDS011;13082;52.374;4.946;2024-02-28T07:59:42;25.53;;;17.30;;
25091;SDS011;13082;52.374;4.946;2024-02-28T08:02:08;24.63;;;17.57;;
25091;SDS011;13082;52.374;4.946;2024-02-28T08:04:36;26.47;;;16.73;;
25091;SDS011;13082;52.374;4.946;2024-02-28T08:07:02;24.47;;;16.40;;
25091;SDS011;13082;52.374;4.946;2024-02-28T08:09:28;27.43;;;16.50;;
25091;SDS011;13082;52.374;4.946;2024-02-28T08:11:54;23.87;;;16.67;;
25091;SDS011;13082;52.374;4.946;2024-02-28T08:14:20;26.53;;;17.50;;
25091;SDS011;13082;52.374;4.946;2024-02-28T08:16:46;24.73;;;18.13;;
25091;SDS011;13082;52.374;4.946;2024-02-28T08:19:11;26.40;;;17.27;;
25091;SDS011;13082;52.374;4.946;2024-02-28T08:21:37;27.07;;;16.97;;
25091;SDS011;13082;52.374;4.946;2024-02-28T08:24:03;26.40;;;17.20;;
25091;SDS011;13082;52.374;4.946;2024-02-28T08:26:30;28.73;;;17.00;;
25091;SDS011;13082;52.374;4.946;2024-02-28T08:28:56;24.63;;;17.77;;
25091;SDS011;13082;52.374;4.946;2024-02-28T08:31:21;24.90;;;17.77;;
25091;SDS011;13082;52.374;4.946;2024-02-28T08:33:47;25.97;;;16.77;;
25091;SDS011;13082;52.374;4.946;2024-02-28T08:36:13;26.17;;;17.73;;
25091;SDS011;13082;52.374;4.946;2024-02-28T08:38:40;27.07;;;18.30;;
25091;SDS011;13082;52.374;4.946;2024-02-28T08:41:06;22.77;;;16.47;;
25091;SDS011;13082;52.374;4.946;2024-02-28T08:43:33;27.63;;;17.07;;
25091;SDS011;13082;52.374;4.946;2024-02-28T08:46:02;24.20;;;17.47;;
25091;SDS011;13082;52.374;4.946;2024-02-28T08:48:28;26.40;;;17.93;;
25091;SDS011;13082;52.374;4.946;2024-02-28T08:50:54;31.63;;;17.63;;
25091;SDS011;13082;52.374;4.946;2024-02-28T08:53:20;24.67;;;15.07;;
25091;SDS011;13082;52.374;4.946;2024-02-28T08:55:45;28.70;;;18.83;;
25091;SDS011;13082;52.374;4.946;2024-02-28T08:58:11;23.83;;;16.27;;
25091;SDS011;13082;52.374;4.946;2024-02-28T09:00:37;27.67;;;16.60;;
25091;SDS011;13082;52.374;4.946;2024-02-28T09:03:03;26.93;;;15.87;;
25091;SDS011;13082;52.374;4.946;2024-02-28T09:05:29;24.87;;;15.63;;
25091;SDS011;13082;52.374;4.946;2024-02-28T09:07:55;26.47;;;16.70;;
25091;SDS011;13082;52.374;4.946;2024-02-28T09:10:22;29.60;;;16.63;;
25091;SDS011;13082;52.374;4.946;2024-02-28T09:12:49;23.20;;;15.43;;
25091;SDS011;13082;52.374;4.946;2024-02-28T09:15:15;25.10;;;16.73;;
25091;SDS011;13082;52.374;4.946;2024-02-28T09:17:41;29.27;;;15.73;;
25091;SDS011;13082;52.374;4.946;2024-02-28T09:20:07;23.77;;;14.87;;
25091;SDS011;13082;52.374;4.946;2024-02-28T09:22:33;23.90;;;14.73;;
25091;SDS011;13082;52.374;4.946;2024-02-28T09:25:00;21.20;;;14.87;;
25091;SDS011;13082;52.374;4.946;2024-02-28T09:27:28;20.63;;;14.37;;
25091;SDS011;13082;52.374;4.946;2024-02-28T09:29:54;26.67;;;15.23;;
25091;SDS011;13082;52.374;4.946;2024-02-28T09:32:20;24.03;;;14.97;;
25091;SDS011;13082;52.374;4.946;2024-02-28T09:34:45;24.77;;;15.57;;
25091;SDS011;13082;52.374;4.946;2024-02-28T09:37:11;23.07;;;15.13;;
25091;SDS011;13082;52.374;4.946;2024-02-28T09:39:43;24.87;;;15.60;;
25091;SDS011;13082;52.374;4.946;2024-02-28T09:42:09;26.30;;;15.50;;
25091;SDS011;13082;52.374;4.946;2024-02-28T09:44:35;25.00;;;15.07;;
25091;SDS011;13082;52.374;4.946;2024-02-28T09:47:01;21.33;;;14.47;;
25091;SDS011;13082;52.374;4.946;2024-02-28T09:49:28;18.07;;;13.60;;
25091;SDS011;13082;52.374;4.946;2024-02-28T09:51:56;20.80;;;15.07;;
25091;SDS011;13082;52.374;4.946;2024-02-28T09:54:23;22.87;;;14.27;;
25091;SDS011;13082;52.374;4.946;2024-02-28T09:56:49;20.50;;;14.57;;
25091;SDS011;13082;52.374;4.946;2024-02-28T09:59:15;21.83;;;14.33;;
25091;SDS011;13082;52.374;4.946;2024-02-28T10:01:43;21.73;;;14.20;;
25091;SDS011;13082;52.374;4.946;2024-02-28T10:04:31;18.90;;;12.43;;
25091;SDS011;13082;52.374;4.946;2024-02-28T10:06:59;18.67;;;12.77;;
25091;SDS011;13082;52.374;4.946;2024-02-28T10:09:38;21.70;;;13.80;;
25091;SDS011;13082;52.374;4.946;2024-02-28T10:12:03;26.93;;;14.00;;
25091;SDS011;13082;52.374;4.946;2024-02-28T10:14:30;23.63;;;14.17;;
25091;SDS011;13082;52.374;4.946;2024-02-28T10:16:55;25.27;;;15.03;;
25091;SDS011;13082;52.374;4.946;2024-02-28T10:19:21;20.33;;;13.03;;
25091;SDS011;13082;52.374;4.946;2024-02-28T10:21:47;28.57;;;15.33;;
25091;SDS011;13082;52.374;4.946;2024-02-28T10:24:12;24.77;;;14.07;;
25091;SDS011;13082;52.374;4.946;2024-02-28T10:26:45;30.10;;;14.17;;
25091;SDS011;13082;52.374;4.946;2024-02-28T10:29:20;21.00;;;14.73;;
25091;SDS011;13082;52.374;4.946;2024-02-28T10:31:52;27.33;;;15.87;;
25091;SDS011;13082;52.374;4.946;2024-02-28T10:34:20;21.93;;;14.70;;
25091;SDS011;13082;52.374;4.946;2024-02-28T10:36:46;28.00;;;14.57;;
25091;SDS011;13082;52.374;4.946;2024-02-28T10:39:12;26.13;;;14.53;;
25091;SDS011;13082;52.374;4.946;2024-02-28T10:41:38;19.43;;;14.03;;
25091;SDS011;13082;52.374;4.946;2024-02-28T10:44:04;28.27;;;15.07;;
25091;SDS011;13082;52.374;4.946;2024-02-28T10:46:33;27.10;;;14.87;;
25091;SDS011;13082;52.374;4.946;2024-02-28T10:48:59;21.63;;;15.07;;
25091;SDS011;13082;52.374;4.946;2024-02-28T10:51:25;27.33;;;14.40;;
25091;SDS011;13082;52.374;4.946;2024-02-28T10:54:10;21.50;;;14.77;;
25091;SDS011;13082;52.374;4.946;2024-02-28T10:56:39;24.07;;;14.53;;
25091;SDS011;13082;52.374;4.946;2024-02-28T10:59:07;23.73;;;13.93;;
25091;SDS011;13082;52.374;4.946;2024-02-28T11:01:37;26.60;;;14.67;;
25091;SDS011;13082;52.374;4.946;2024-02-28T11:04:12;22.13;;;13.77;;
25091;SDS011;13082;52.374;4.946;2024-02-28T11:06:50;21.50;;;13.63;;
25091;SDS011;13082;52.374;4.946;2024-02-28T11:09:23;23.20;;;13.50;;
25091;SDS011;13082;52.374;4.946;2024-02-28T11:11:52;17.53;;;12.13;;
25091;SDS011;13082;52.374;4.946;2024-02-28T11:14:19;23.67;;;13.27;;
25091;SDS011;13082;52.374;4.946;2024-02-28T11:16:47;22.33;;;13.63;;
25091;SDS011;13082;52.374;4.946;2024-02-28T11:19:20;17.53;;;12.77;;
25091;SDS011;13082;52.374;4.946;2024-02-28T11:21:53;25.83;;;14.10;;
25091;SDS011;13082;52.374;4.946;2024-02-28T11:24:22;19.03;;;12.20;;
25091;SDS011;13082;52.374;4.946;2024-02-28T11:26:52;19.23;;;13.17;;
25091;SDS011;13082;52.374;4.946;2024-02-28T11:29:24;25.10;;;14.27;;
25091;SDS011;13082;52.374;4.946;2024-02-28T11:31:51;20.53;;;12.60;;
25091;SDS011;13082;52.374;4.946;2024-02-28T11:34:18;22.97;;;13.17;;
25091;SDS011;13082;52.374;4.946;2024-02-28T11:36:43;17.77;;;9.10;;
25091;SDS011;13082;52.374;4.946;2024-02-28T11:39:13;17.13;;;10.67;;
25091;SDS011;13082;52.374;4.946;2024-02-28T11:41:38;14.93;;;9.67;;
25091;SDS011;13082;52.374;4.946;2024-02-28T11:44:04;15.57;;;10.43;;
25091;SDS011;13082;52.374;4.946;2024-02-28T11:46:30;19.57;;;11.60;;
25091;SDS011;13082;52.374;4.946;2024-02-28T11:48:56;15.90;;;10.03;;
25091;SDS011;13082;52.374;4.946;2024-02-28T11:51:22;15.13;;;10.27;;
25091;SDS011;13082;52.374;4.946;2024-02-28T11:53:48;13.63;;;9.53;;
25091;SDS011;13082;52.374;4.946;2024-02-28T11:56:13;17.63;;;9.53;;
25091;SDS011;13082;52.374;4.946;2024-02-28T11:58:52;15.17;;;9.97;;
25091;SDS011;13082;52.374;4.946;2024-02-28T12:01:19;16.57;;;10.37;;
25091;SDS011;13082;52.374;4.946;2024-02-28T12:03:45;12.87;;;9.13;;
25091;SDS011;13082;52.374;4.946;2024-02-28T12:06:13;13.50;;;9.30;;
25091;SDS011;13082;52.374;4.946;2024-02-28T12:08:39;14.13;;;10.43;;
25091;SDS011;13082;52.374;4.946;2024-02-28T12:11:08;15.63;;;10.47;;
25091;SDS011;13082;52.374;4.946;2024-02-28T12:13:35;14.60;;;10.33;;
25091;SDS011;13082;52.374;4.946;2024-02-28T12:16:02;17.53;;;10.33;;
25091;SDS011;13082;52.374;4.946;2024-02-28T12:18:29;17.07;;;12.17;;
25091;SDS011;13082;52.374;4.946;2024-02-28T12:20:54;15.03;;;10.53;;
25091;SDS011;13082;52.374;4.946;2024-02-28T12:23:20;15.87;;;11.27;;
25091;SDS011;13082;52.374;4.946;2024-02-28T12:25:46;15.67;;;10.53;;
25091;SDS011;13082;52.374;4.946;2024-02-28T12:28:11;13.97;;;10.13;;
25091;SDS011;13082;52.374;4.946;2024-02-28T12:30:41;13.23;;;10.10;;
25091;SDS011;13082;52.374;4.946;2024-02-28T12:33:07;15.57;;;9.73;;
25091;SDS011;13082;52.374;4.946;2024-02-28T12:35:39;18.70;;;10.73;;
25091;SDS011;13082;52.374;4.946;2024-02-28T12:38:06;15.50;;;10.20;;
25091;SDS011;13082;52.374;4.946;2024-02-28T12:40:32;17.87;;;9.70;;
25091;SDS011;13082;52.374;4.946;2024-02-28T12:42:57;18.00;;;11.53;;
25091;SDS011;13082;52.374;4.946;2024-02-28T12:45:23;16.63;;;9.87;;
25091;SDS011;13082;52.374;4.946;2024-02-28T12:47:49;15.50;;;11.63;;
25091;SDS011;13082;52.374;4.946;2024-02-28T12:50:14;19.10;;;12.27;;
25091;SDS011;13082;52.374;4.946;2024-02-28T12:52:40;18.87;;;13.27;;
25091;SDS011;13082;52.374;4.946;2024-02-28T12:55:06;22.03;;;14.13;;
25091;SDS011;13082;52.374;4.946;2024-02-28T12:57:31;19.60;;;13.83;;
25091;SDS011;13082;52.374;4.946;2024-02-28T12:59:57;22.47;;;13.10;;
25091;SDS011;13082;52.374;4.946;2024-02-28T13:02:23;19.07;;;13.87;;
25091;SDS011;13082;52.374;4.946;2024-02-28T13:04:48;19.90;;;13.37;;
25091;SDS011;13082;52.374;4.946;2024-02-28T13:07:14;18.00;;;12.50;;
25091;SDS011;13082;52.374;4.946;2024-02-28T13:09:40;21.83;;;12.83;;
25091;SDS011;13082;52.374;4.946;2024-02-28T13:12:06;17.87;;;12.17;;
25091;SDS011;13082;52.374;4.946;2024-02-28T13:14:33;15.73;;;11.27;;
25091;SDS011;13082;52.374;4.946;2024-02-28T13:16:59;14.20;;;10.07;;
25091;SDS011;13082;52.374;4.946;2024-02-28T13:19:24;15.57;;;9.07;;
25091;SDS011;13082;52.374;4.946;2024-02-28T13:21:50;15.97;;;11.03;;
25091;SDS011;13082;52.374;4.946;2024-02-28T13:24:16;17.23;;;10.07;;
25091;SDS011;13082;52.374;4.946;2024-02-28T13:26:42;16.17;;;9.30;;
25091;SDS011;13082;52.374;4.946;2024-02-28T13:29:07;15.40;;;9.27;;
25091;SDS011;13082;52.374;4.946;2024-02-28T13:31:33;15.93;;;10.13;;
25091;SDS011;13082;52.374;4.946;2024-02-28T13:34:00;21.50;;;9.77;;
25091;SDS011;13082;52.374;4.946;2024-02-28T13:36:25;13.97;;;10.43;;
25091;SDS011;13082;52.374;4.946;2024-02-28T13:38:51;13.83;;;9.70;;
25091;SDS011;13082;52.374;4.946;2024-02-28T13:41:17;15.03;;;11.57;;
25091;SDS011;13082;52.374;4.946;2024-02-28T13:43:43;17.07;;;10.50;;
25091;SDS011;13082;52.374;4.946;2024-02-28T13:46:08;18.20;;;12.17;;
25091;SDS011;13082;52.374;4.946;2024-02-28T13:48:35;15.90;;;11.23;;
25091;SDS011;13082;52.374;4.946;2024-02-28T13:51:00;17.63;;;11.37;;
25091;SDS011;13082;52.374;4.946;2024-02-28T13:53:29;18.77;;;12.00;;
25091;SDS011;13082;52.374;4.946;2024-02-28T13:55:55;19.40;;;11.70;;
25091;SDS011;13082;52.374;4.946;2024-02-28T13:58:20;23.40;;;13.73;;
25091;SDS011;13082;52.374;4.946;2024-02-28T14:00:46;16.70;;;11.43;;
25091;SDS011;13082;52.374;4.946;2024-02-28T14:03:12;16.87;;;11.57;;
25091;SDS011;13082;52.374;4.946;2024-02-28T14:05:38;22.13;;;14.30;;
25091;SDS011;13082;52.374;4.946;2024-02-28T14:08:04;23.07;;;12.67;;
25091;SDS011;13082;52.374;4.946;2024-02-28T14:10:32;23.63;;;12.93;;
25091;SDS011;13082;52.374;4.946;2024-02-28T14:12:58;25.43;;;13.20;;
25091;SDS011;13082;52.374;4.946;2024-02-28T14:15:24;22.97;;;13.77;;
25091;SDS011;13082;52.374;4.946;2024-02-28T14:17:50;22.17;;;11.97;;
25091;SDS011;13082;52.374;4.946;2024-02-28T14:20:16;22.13;;;12.70;;
25091;SDS011;13082;52.374;4.946;2024-02-28T14:22:42;21.57;;;11.83;;
25091;SDS011;13082;52.374;4.946;2024-02-28T14:25:17;20.73;;;11.03;;
25091;SDS011;13082;52.374;4.946;2024-02-28T14:27:45;21.53;;;11.87;;